createdAt,value
2018-07-31T03:31:44.887Z,18.50
2018-07-31T03:34:13.314Z,18.54
2018-07-31T03:36:41.474Z,18.46
2018-07-31T03:39:10.447Z,18.43
2018-07-31T03:41:38.543Z,18.47
2018-07-31T03:44:07.099Z,18.53
2018-07-31T03:46:35.183Z,18.48
2018-07-31T03:49:03.303Z,18.44
2018-07-31T03:51:31.521Z,18.46
2018-07-31T03:53:59.603Z,18.46
2018-07-31T03:56:27.734Z,18.54
2018-07-31T03:58:55.802Z,18.59
2018-07-31T04:01:23.914Z,18.60
2018-07-31T04:03:51.999Z,18.59
2018-07-31T04:06:20.103Z,18.47
2018-07-31T04:08:48.211Z,18.40
2018-07-31T04:11:16.320Z,18.39
2018-07-31T04:13:44.426Z,18.35
2018-07-31T04:16:12.529Z,18.40
2018-07-31T04:18:40.644Z,18.37
2018-07-31T04:21:11.647Z,18.34
2018-07-31T04:26:43.984Z,18.55
2018-07-31T04:29:12.178Z,18.52
2018-07-31T04:31:40.383Z,18.54
2018-07-31T04:34:09.296Z,18.61
2018-07-31T04:36:37.449Z,18.63
2018-07-31T04:39:08.501Z,18.76
2018-07-31T04:41:36.671Z,18.81
2018-07-31T04:44:04.820Z,18.86
2018-07-31T04:46:32.955Z,18.94
2018-07-31T04:49:01.030Z,18.99
2018-07-31T04:51:29.271Z,19.03
2018-07-31T04:53:57.384Z,19.12
2018-07-31T04:56:25.478Z,19.27
2018-07-31T04:58:53.576Z,19.32
2018-07-31T05:01:21.703Z,19.39
2018-07-31T05:03:49.871Z,19.57
2018-07-31T05:06:18.244Z,19.62
2018-07-31T05:08:46.475Z,19.79
2018-07-31T05:11:14.575Z,19.79
2018-07-31T05:13:42.700Z,19.80
2018-07-31T05:16:10.795Z,19.81
2018-07-31T05:18:38.916Z,20.02
2018-07-31T05:21:07.378Z,20.07
2018-07-31T05:23:35.479Z,20.08
2018-07-31T05:26:03.577Z,20.12
2018-07-31T05:28:31.685Z,20.27
2018-07-31T05:30:59.790Z,20.09
2018-07-31T05:33:27.887Z,20.05
2018-07-31T05:35:55.971Z,20.38
2018-07-31T05:38:24.121Z,20.65
2018-07-31T05:40:52.231Z,21.76
2018-07-31T05:43:20.326Z,23.35
2018-07-31T05:45:48.831Z,24.74
2018-07-31T05:48:16.938Z,25.46
2018-07-31T05:50:45.030Z,26.34
2018-07-31T05:53:13.125Z,27.84
2018-07-31T05:55:41.726Z,29.31
2018-07-31T05:58:09.872Z,30.51
2018-07-31T06:00:37.964Z,31.18
2018-07-31T06:03:06.263Z,32.15
2018-07-31T06:05:34.350Z,32.92
2018-07-31T06:08:02.467Z,33.61
2018-07-31T06:10:30.596Z,33.71
2018-07-31T06:12:58.696Z,33.44
2018-07-31T06:15:27.112Z,32.88
2018-07-31T06:17:55.200Z,32.15
2018-07-31T06:20:23.303Z,32.70
2018-07-31T06:22:51.808Z,33.48
2018-07-31T06:25:19.914Z,33.91
2018-07-31T06:27:48.007Z,34.46
2018-07-31T06:30:16.091Z,34.60
2018-07-31T06:32:44.243Z,34.38
2018-07-31T06:35:13.207Z,34.23
2018-07-31T06:37:41.309Z,33.94
2018-07-31T06:40:10.186Z,32.68
2018-07-31T06:42:38.290Z,30.93
2018-07-31T06:45:06.488Z,30.23
2018-07-31T06:47:34.587Z,29.33
2018-07-31T06:50:04.281Z,28.73
2018-07-31T06:52:32.360Z,26.89
2018-07-31T06:55:00.464Z,25.72
2018-07-31T06:57:28.569Z,26.02
2018-07-31T06:59:56.672Z,25.52
2018-07-31T07:02:24.764Z,25.40
2018-07-31T07:04:52.865Z,25.31
2018-07-31T07:07:21.004Z,25.60
2018-07-31T07:09:49.107Z,25.28
2018-07-31T07:12:17.202Z,25.54
2018-07-31T07:14:45.319Z,25.55
2018-07-31T07:17:14.373Z,25.82
2018-07-31T07:19:42.467Z,25.78
2018-07-31T07:22:10.764Z,25.86
2018-07-31T07:24:38.856Z,26.04
2018-07-31T07:27:06.910Z,26.28
2018-07-31T07:29:35.013Z,26.37
2018-07-31T07:32:03.237Z,26.52
2018-07-31T07:34:31.453Z,26.51
2018-07-31T07:36:59.541Z,26.44
2018-07-31T07:39:27.654Z,26.65
2018-07-31T07:41:55.734Z,27.09
2018-07-31T07:44:23.817Z,27.30
2018-07-31T07:46:51.895Z,27.43
2018-07-31T07:49:20.282Z,27.50
2018-07-31T07:51:48.379Z,27.57
2018-07-31T07:54:16.556Z,27.32
2018-07-31T22:02:38.593Z,26.99
2018-07-31T22:05:06.671Z,26.91
2018-07-31T22:07:34.766Z,26.79
2018-07-31T22:10:02.924Z,26.74
2018-07-31T22:12:31.317Z,26.74
2018-07-31T22:14:59.435Z,26.70
2018-07-31T22:17:27.530Z,26.63
2018-07-31T22:19:55.737Z,26.63
2018-07-31T22:22:23.835Z,26.59
2018-07-31T22:24:52.225Z,26.47
2018-07-31T22:27:20.305Z,26.48
2018-07-31T22:29:48.416Z,26.50
2018-07-31T22:32:17.315Z,26.45
2018-07-31T22:34:45.440Z,26.32
2018-07-31T22:37:13.545Z,26.27
2018-07-31T22:39:41.724Z,26.20
2018-07-31T22:42:09.802Z,26.17
2018-07-31T22:44:37.921Z,26.17
2018-07-31T22:47:06.044Z,26.19
2018-07-31T22:49:34.151Z,26.16
2018-07-31T22:52:02.511Z,26.21
2018-07-31T22:54:30.900Z,26.27
2018-07-31T22:56:59.020Z,26.44
2018-07-31T22:59:27.110Z,26.30
2018-07-31T23:01:55.228Z,26.37
2018-07-31T23:04:23.319Z,26.32
2018-07-31T23:06:51.419Z,26.49
2018-07-31T23:09:19.515Z,26.57
2018-07-31T23:11:48.617Z,26.57
2018-07-31T23:14:16.723Z,26.53
2018-07-31T23:16:44.821Z,26.38
2018-07-31T23:19:12.932Z,26.42
2018-07-31T23:21:41.038Z,26.40
2018-07-31T23:24:09.127Z,26.34
2018-07-31T23:26:37.227Z,26.37
2018-07-31T23:29:05.310Z,26.31
2018-07-31T23:31:33.491Z,26.22
2018-07-31T23:34:01.569Z,26.24
2018-07-31T23:36:29.735Z,26.20
2018-07-31T23:38:57.918Z,26.10
2018-07-31T23:41:26.015Z,25.97
2018-07-31T23:43:54.132Z,25.86
2018-07-31T23:46:22.232Z,25.85
2018-07-31T23:48:50.407Z,25.89
2018-07-31T23:51:18.571Z,25.92
2018-07-31T23:53:46.668Z,25.88
2018-07-31T23:56:14.751Z,25.79
2018-07-31T23:58:43.415Z,25.75
